createdAt,value
2018-08-25T00:31:53.045Z,12.2
2018-08-25T02:21:32.641Z,9.0
2018-08-25T02:41:31.255Z,9.5
2018-08-25T02:51:27.902Z,10.5
2018-08-25T03:01:32.930Z,10.3
2018-08-25T03:11:28.110Z,10.4
2018-08-25T03:21:26.135Z,10.9
2018-08-25T03:31:25.624Z,11.9
2018-08-25T03:41:25.984Z,10.7
2018-08-25T03:51:25.886Z,11.7
2018-08-25T04:01:25.865Z,12.5
2018-08-25T04:11:26.574Z,14.4
2018-08-25T04:21:27.401Z,15.7
2018-08-25T04:31:32.109Z,16.2
2018-08-25T04:41:32.325Z,17.8
2018-08-25T04:51:30.925Z,15.4
2018-08-25T05:01:30.534Z,17.5
2018-08-25T05:11:32.140Z,19.2
2018-08-25T05:21:30.929Z,21.6
2018-08-25T05:31:27.292Z,21.2
2018-08-25T05:41:26.315Z,21.5
2018-08-25T05:51:25.590Z,23.9
2018-08-25T06:01:25.693Z,22.8
2018-08-25T06:11:25.769Z,22.8
2018-08-25T06:21:26.002Z,21.1
2018-08-25T06:31:25.141Z,22.2
2018-08-25T06:41:25.406Z,19.4
2018-08-25T06:51:26.059Z,21.0
2018-08-25T07:01:26.249Z,20.0
2018-08-25T07:11:26.353Z,21.3
2018-08-25T07:21:25.432Z,20.7
2018-08-25T07:31:31.405Z,22.5
2018-08-25T07:41:31.402Z,21.0
2018-08-25T07:51:33.678Z,12.8
2018-08-25T08:01:30.795Z,11.1
2018-08-25T08:11:26.864Z,9.8
2018-08-25T08:21:30.454Z,21.1
2018-08-25T08:31:28.090Z,16.5
2018-08-25T08:41:31.997Z,6.9
2018-08-25T08:51:32.721Z,5.1
2018-08-25T09:01:27.614Z,3.6
2018-08-25T09:11:31.349Z,3.8
2018-08-25T09:21:31.440Z,4.1
2018-08-25T09:31:25.249Z,4.8
2018-08-25T09:41:25.173Z,6.5
2018-08-25T09:51:31.920Z,9.9
2018-08-25T10:01:26.995Z,12.8
2018-08-25T10:11:28.134Z,14.4
2018-08-25T10:21:26.597Z,12.8
2018-08-25T10:31:32.682Z,13.4
2018-08-25T10:41:31.094Z,15.0
2018-08-25T10:51:26.129Z,14.2
2018-08-25T11:01:32.019Z,15.3
2018-08-25T11:11:27.206Z,14.0
2018-08-25T11:21:27.815Z,14.6
2018-08-25T11:31:26.691Z,14.6
2018-08-25T11:41:26.474Z,13.3
2018-08-25T11:51:30.167Z,14.8
2018-08-25T12:01:26.389Z,16.8
2018-08-25T12:11:27.052Z,18.3
2018-08-25T12:21:26.141Z,18.9
2018-08-25T12:31:32.071Z,21.8
2018-08-25T12:41:31.955Z,17.4
2018-08-25T12:51:27.215Z,17.3
2018-08-25T13:01:31.456Z,16.6
2018-08-25T13:11:26.091Z,16.0
2018-08-25T13:21:30.316Z,16.7
2018-08-25T13:31:32.284Z,14.1
2018-08-25T13:41:31.477Z,13.2
2018-08-25T13:51:32.954Z,11.9
2018-08-25T14:01:32.446Z,11.9
2018-08-25T14:11:31.460Z,12.5
2018-08-25T14:21:31.496Z,10.8
2018-08-25T14:31:26.223Z,11.4
2018-08-25T14:41:25.429Z,10.7
2018-08-25T14:51:25.891Z,10.6
2018-08-25T15:01:25.912Z,10.0
2018-08-25T15:11:25.936Z,10.6
2018-08-25T15:21:25.915Z,10.3
2018-08-25T15:31:26.106Z,9.8
2018-08-25T15:41:26.455Z,9.3
2018-08-25T15:51:31.148Z,9.7
2018-08-25T16:01:26.370Z,9.5
2018-08-25T16:11:25.376Z,9.5
2018-08-25T16:21:28.070Z,10.0
2018-08-25T16:31:30.947Z,9.5
2018-08-25T16:41:30.830Z,9.2
2018-08-25T16:51:32.898Z,9.8
2018-08-25T17:01:31.860Z,9.5
2018-08-25T17:11:36.409Z,10.3
2018-08-25T17:21:31.373Z,10.9
2018-08-25T17:31:31.308Z,10.3
2018-08-25T17:41:31.423Z,12.6
2018-08-25T17:51:45.456Z,11.9
2018-08-25T18:02:04.367Z,12.4
2018-08-25T18:11:30.829Z,11.2
2018-08-25T18:21:33.008Z,12.6
2018-08-25T18:31:32.743Z,12.1
2018-08-25T18:41:47.422Z,11.6
2018-08-25T18:51:31.786Z,12.3
2018-08-25T19:01:29.625Z,11.4
2018-08-25T19:11:37.531Z,11.6
2018-08-25T19:21:32.393Z,12.5
2018-08-25T19:31:31.128Z,10.8
2018-08-25T19:41:32.202Z,11.3
2018-08-25T19:51:48.382Z,9.7
2018-08-25T20:01:33.019Z,10.4
2018-08-25T20:11:31.629Z,8.9
2018-08-25T20:21:31.417Z,9.2
2018-08-25T20:31:30.919Z,9.0
2018-08-25T20:41:28.254Z,8.2
2018-08-25T20:51:31.478Z,9.1
2018-08-25T21:01:31.520Z,9.4
2018-08-25T21:51:31.001Z,6.3
2018-08-25T22:01:56.177Z,8.1
2018-08-25T22:22:07.153Z,6.8
2018-08-25T22:41:48.025Z,7.9
2018-08-25T22:51:40.789Z,8.5
2018-08-25T23:01:26.143Z,11.7
2018-08-25T23:11:26.488Z,14.1
2018-08-25T23:21:27.968Z,13.4
2018-08-25T23:31:27.339Z,13.8
2018-08-25T23:41:26.024Z,14.6
2018-08-25T23:51:25.285Z,14.7
